Time;durP1;ratioP1;P1;durP2;ratioP2;P2;SDS_P1;SDS_P2;PMS_P1;PMS_P2;Temp;Humidity;BMP_temperature;BMP_pressure;BME280_temperature;BME280_humidity;BME280_pressure;Samples;Min_cycle;Max_cycle;Signal;HPM_P1;HPM_P2
2021/11/05 00:00:14;;;;;;;3.60;2.78;;;;;;;10.11;57.18;99215.63;5068171;28;20049;-71
2021/11/05 00:02:41;;;;;;;3.92;2.42;;;;;;;10.19;56.87;99214.13;5048924;28;20231;-73
2021/11/05 00:05:08;;;;;;;5.63;2.88;;;;;;;10.23;56.79;99234.03;5065750;28;20631;-70
2021/11/05 00:07:35;;;;;;;4.93;2.63;;;;;;;10.26;56.82;99228.47;5065459;28;20049;-69
2021/11/05 00:10:02;;;;;;;6.05;2.85;;;;;;;10.31;56.47;99232.41;5066095;28;20044;-71
2021/11/05 00:12:29;;;;;;;3.67;2.10;;;;;;;10.40;56.46;99230.75;5065606;28;20116;-69
2021/11/05 00:14:56;;;;;;;7.38;2.25;;;;;;;10.42;56.22;99228.00;5065910;28;20045;-74
2021/11/05 00:17:24;;;;;;;4.13;2.88;;;;;;;10.42;56.24;99247.28;5066052;28;20037;-73
2021/11/05 00:19:51;;;;;;;2.92;1.90;;;;;;;10.47;56.00;99245.09;5065442;28;20045;-74
2021/11/05 00:22:18;;;;;;;4.07;2.33;;;;;;;10.48;55.97;99238.84;5065078;28;20067;-71
2021/11/05 00:24:45;;;;;;;4.28;2.33;;;;;;;10.48;55.86;99233.56;5063790;28;20044;-75
2021/11/05 00:27:11;;;;;;;7.95;2.05;;;;;;;10.47;55.87;99246.91;5065579;28;20045;-73
2021/11/05 00:29:41;;;;;;;3.30;2.00;;;;;;;10.47;55.69;99242.44;5065431;28;20059;-71
2021/11/05 00:32:09;;;;;;;4.40;2.10;;;;;;;10.54;55.61;99231.38;5064098;28;20147;-72
2021/11/05 00:34:37;;;;;;;2.95;2.10;;;;;;;10.49;55.57;99229.94;5064924;28;20131;-70
2021/11/05 00:37:04;;;;;;;4.15;2.45;;;;;;;10.48;55.55;99241.50;5064918;28;20041;-70
2021/11/05 00:39:31;;;;;;;3.05;2.40;;;;;;;10.47;55.56;99244.25;5067646;28;20480;-71
2021/11/05 00:41:58;;;;;;;2.55;2.10;;;;;;;10.48;55.53;99224.81;5065557;28;20599;-71
2021/11/05 00:44:26;;;;;;;5.13;2.20;;;;;;;10.54;55.26;99241.94;5065241;28;20139;-70
2021/11/05 00:46:53;;;;;;;7.10;3.25;;;;;;;10.61;55.18;99240.41;5065143;28;20064;-71
2021/11/05 00:49:20;;;;;;;1.95;1.85;;;;;;;10.59;55.10;99250.25;5065955;28;20044;-70
2021/11/05 00:51:48;;;;;;;3.67;1.70;;;;;;;10.58;55.36;99235.41;5065593;28;20053;-72
2021/11/05 00:54:15;;;;;;;3.92;2.05;;;;;;;10.59;54.66;99240.53;5063959;28;20056;-72
2021/11/05 00:56:42;;;;;;;2.53;1.95;;;;;;;10.63;54.79;99246.38;5064461;28;20055;-70
2021/11/05 00:59:09;;;;;;;2.65;1.80;;;;;;;10.62;54.65;99249.97;5065607;28;20064;-70
2021/11/05 01:01:36;;;;;;;5.38;2.00;;;;;;;10.64;54.81;99240.13;5064806;28;20060;-70
2021/11/05 01:04:03;;;;;;;5.15;2.50;;;;;;;10.61;54.97;99250.97;5064974;28;20040;-70
2021/11/05 01:06:30;;;;;;;3.40;2.17;;;;;;;10.56;54.83;99250.53;5066667;28;20376;-72
2021/11/05 01:08:59;;;;;;;2.92;1.95;;;;;;;10.59;54.73;99247.59;5064892;28;20523;-71
2021/11/05 01:11:26;;;;;;;4.32;2.50;;;;;;;10.61;54.75;99258.91;5065201;28;20625;-72
2021/11/05 01:13:53;;;;;;;7.38;2.60;;;;;;;10.66;54.68;99257.50;5065186;28;20074;-71
2021/11/05 01:16:20;;;;;;;4.43;2.22;;;;;;;10.74;54.28;99248.91;5065125;28;20488;-70
2021/11/05 01:18:47;;;;;;;6.20;2.45;;;;;;;10.76;54.20;99257.50;5065211;28;20667;-72
2021/11/05 01:21:15;;;;;;;3.65;2.40;;;;;;;10.77;54.33;99247.78;5064183;28;20044;-71
2021/11/05 01:23:42;;;;;;;7.50;2.65;;;;;;;10.80;54.13;99253.63;5065285;28;20598;-71
2021/11/05 01:26:11;;;;;;;4.95;2.25;;;;;;;10.81;54.18;99251.84;5063435;28;20083;-70
2021/11/05 01:28:38;;;;;;;4.50;2.13;;;;;;;10.82;53.98;99235.84;5065500;28;20116;-70
2021/11/05 01:31:05;;;;;;;6.55;3.97;;;;;;;10.81;54.15;99244.72;5064507;28;20056;-69
2021/11/05 01:33:33;;;;;;;3.08;2.60;;;;;;;10.82;54.12;99245.56;5064497;28;20067;-71
2021/11/05 01:36:00;;;;;;;3.40;2.20;;;;;;;10.80;54.19;99252.78;5064118;28;20580;-71
2021/11/05 01:38:27;;;;;;;5.15;2.22;;;;;;;10.80;54.27;99247.50;5064508;28;20056;-70
2021/11/05 01:40:54;;;;;;;5.95;2.55;;;;;;;10.81;54.02;99252.66;5064846;28;20388;-73
2021/11/05 01:43:22;;;;;;;3.88;2.72;;;;;;;10.82;53.96;99272.84;5066701;28;20056;-70
2021/11/05 01:45:49;;;;;;;2.78;2.00;;;;;;;10.86;54.06;99250.44;5069229;28;20065;-70
2021/11/05 01:48:16;;;;;;;4.53;2.50;;;;;;;10.88;54.10;99251.13;5068788;28;20040;-70
2021/11/05 01:50:43;;;;;;;4.07;2.63;;;;;;;10.88;54.02;99255.59;5067552;28;20060;-71
2021/11/05 01:53:11;;;;;;;5.63;2.67;;;;;;;10.90;53.92;99261.56;5066626;28;20067;-70
2021/11/05 01:55:38;;;;;;;6.32;2.63;;;;;;;10.92;53.87;99264.91;5066390;28;20437;-72
2021/11/05 01:58:05;;;;;;;5.88;5.07;;;;;;;10.94;53.93;99276.16;5067874;28;20055;-71
2021/11/05 02:00:34;;;;;;;4.40;3.58;;;;;;;10.94;53.86;99260.31;5068177;28;20036;-72
2021/11/05 02:03:02;;;;;;;5.45;2.80;;;;;;;10.97;53.94;99269.78;5068305;28;20059;-71
2021/11/05 02:05:29;;;;;;;8.30;3.20;;;;;;;10.96;53.85;99274.22;5067870;28;20044;-72
2021/11/05 02:07:57;;;;;;;5.70;2.30;;;;;;;10.99;53.89;99265.19;5067859;28;20056;-71
2021/11/05 02:10:27;;;;;;;6.32;2.65;;;;;;;10.99;53.85;99273.13;5067660;28;20049;-71
2021/11/05 02:12:55;;;;;;;5.00;2.95;;;;;;;10.96;53.88;99270.75;5068562;28;20045;-71
2021/11/05 02:15:22;;;;;;;5.80;2.72;;;;;;;10.95;53.82;99271.72;5068101;28;20048;-72
2021/11/05 02:17:51;;;;;;;3.53;2.30;;;;;;;10.94;53.81;99277.97;5067969;28;20209;-72
2021/11/05 02:20:20;;;;;;;6.95;2.90;;;;;;;10.94;53.98;99285.91;5067773;28;20045;-71
2021/11/05 02:22:49;;;;;;;6.25;3.13;;;;;;;10.93;53.82;99284.22;5067882;28;20049;-70
2021/11/05 02:25:17;;;;;;;3.58;2.33;;;;;;;10.91;53.83;99294.91;5066108;28;20044;-71
2021/11/05 02:27:44;;;;;;;5.93;3.25;;;;;;;10.87;53.90;99312.84;5068807;28;20555;-72
2021/11/05 02:30:12;;;;;;;3.90;2.63;;;;;;;10.82;54.14;99301.88;5067465;28;20064;-71
2021/11/05 02:32:41;;;;;;;6.22;2.90;;;;;;;10.77;54.10;99306.75;5067658;28;20052;-70
2021/11/05 02:35:08;;;;;;;4.38;2.25;;;;;;;10.70;54.16;99295.88;5068521;28;20048;-71
2021/11/05 02:37:35;;;;;;;5.53;2.88;;;;;;;10.55;54.62;99296.38;5076173;28;20056;-69
2021/11/05 02:40:05;;;;;;;5.35;2.75;;;;;;;10.43;54.86;99296.50;5077779;28;20045;-69
2021/11/05 02:42:32;;;;;;;5.70;3.05;;;;;;;10.31;55.03;99305.47;5078618;28;20049;-70
2021/11/05 02:44:59;;;;;;;4.03;2.75;;;;;;;10.23;55.17;99298.19;5078281;28;20063;-74
2021/11/05 02:47:27;;;;;;;6.25;2.95;;;;;;;10.17;55.25;99325.09;5078945;28;20100;-69
2021/11/05 02:49:56;;;;;;;5.97;3.13;;;;;;;10.14;55.49;99334.13;5078123;28;20125;-70
2021/11/05 02:52:23;;;;;;;3.25;2.50;;;;;;;10.10;55.58;99326.59;5079681;28;20112;-69
2021/11/05 02:54:51;;;;;;;5.40;2.97;;;;;;;10.12;55.40;99330.78;5065819;28;20503;-68
2021/11/05 02:57:19;;;;;;;4.90;2.30;;;;;;;10.13;55.28;99334.25;5069207;28;20059;-73
2021/11/05 02:59:46;;;;;;;4.15;2.55;;;;;;;10.09;55.41;99328.41;5069917;28;20048;-71
2021/11/05 03:02:13;;;;;;;4.70;3.03;;;;;;;10.08;55.44;99334.66;5069917;28;20500;-70
2021/11/05 03:04:40;;;;;;;4.45;3.00;;;;;;;10.15;55.35;99332.31;5068785;28;20054;-70
2021/11/05 03:07:09;;;;;;;3.95;2.72;;;;;;;10.22;55.22;99337.91;5069389;28;20059;-71
2021/11/05 03:09:38;;;;;;;4.20;3.42;;;;;;;10.33;54.93;99346.63;5068822;28;20055;-71
2021/11/05 03:12:06;;;;;;;5.50;3.17;;;;;;;10.39;54.65;99345.25;5067984;28;20048;-68
2021/11/05 03:14:34;;;;;;;2.30;2.08;;;;;;;10.46;54.48;99348.19;5067592;28;20045;-70
2021/11/05 03:17:02;;;;;;;4.72;3.25;;;;;;;10.50;54.39;99357.53;5069368;28;20059;-76
2021/11/05 03:19:29;;;;;;;5.22;2.55;;;;;;;10.58;54.35;99354.22;5070600;28;20072;-71
2021/11/05 03:21:56;;;;;;;6.85;3.90;;;;;;;10.64;54.24;99357.16;5068018;28;20051;-74
2021/11/05 03:24:23;;;;;;;5.82;3.33;;;;;;;10.71;54.07;99360.94;5065582;28;20075;-71
2021/11/05 03:26:50;;;;;;;3.75;2.85;;;;;;;10.79;53.71;99354.97;5067283;28;20048;-74
2021/11/05 03:29:18;;;;;;;3.67;2.63;;;;;;;10.78;53.71;99355.94;5066606;28;20052;-71
2021/11/05 03:31:46;;;;;;;4.40;2.58;;;;;;;10.82;53.53;99367.06;5067101;28;20353;-70
2021/11/05 03:34:15;;;;;;;5.10;2.97;;;;;;;10.86;53.48;99366.69;5066258;28;20051;-73
2021/11/05 03:36:42;;;;;;;4.38;2.58;;;;;;;10.89;53.59;99370.84;5065956;28;20550;-71
2021/11/05 03:39:09;;;;;;;5.93;2.63;;;;;;;10.94;53.30;99373.91;5066759;28;20048;-70
2021/11/05 03:41:36;;;;;;;5.22;3.65;;;;;;;10.98;53.31;99370.03;5066772;28;20127;-73
2021/11/05 03:44:03;;;;;;;3.58;2.35;;;;;;;11.04;53.08;99381.88;5030429;28;20044;-73
2021/11/05 03:46:32;;;;;;;3.03;2.40;;;;;;;11.05;53.04;99381.72;5065506;28;20048;-73
2021/11/05 03:49:00;;;;;;;4.53;2.65;;;;;;;11.05;53.00;99379.09;5066616;28;20109;-75
2021/11/05 03:51:28;;;;;;;4.53;3.28;;;;;;;11.05;52.76;99388.81;5066263;28;20052;-72
2021/11/05 03:53:54;;;;;;;4.78;2.88;;;;;;;11.06;52.85;99391.34;5066260;28;20064;-71
2021/11/05 03:56:22;;;;;;;3.80;2.72;;;;;;;11.08;52.55;99394.69;5065106;28;20045;-71
2021/11/05 03:58:49;;;;;;;3.33;2.25;;;;;;;11.08;52.66;99391.22;5065668;28;20086;-71
2021/11/05 04:01:19;;;;;;;4.07;2.47;;;;;;;11.08;52.56;99384.09;5066627;28;20476;-73
2021/11/05 04:03:46;;;;;;;4.03;2.72;;;;;;;11.06;52.59;99393.97;5069089;28;20467;-75
2021/11/05 04:06:15;;;;;;;4.68;3.17;;;;;;;11.04;52.67;99393.28;5065142;28;20045;-74
2021/11/05 04:08:41;;;;;;;5.75;2.85;;;;;;;11.06;52.58;99395.78;5066439;28;20060;-72
2021/11/05 04:11:09;;;;;;;3.97;2.80;;;;;;;11.08;52.53;99404.41;5066973;28;20515;-72
2021/11/05 04:13:36;;;;;;;3.33;2.65;;;;;;;11.06;52.49;99417.75;5066100;28;20072;-73
2021/11/05 04:16:03;;;;;;;3.15;2.35;;;;;;;11.03;52.67;99418.03;5065027;28;20048;-72
2021/11/05 04:18:30;;;;;;;3.83;2.15;;;;;;;11.04;52.66;99421.53;5067213;28;20045;-70
2021/11/05 04:20:57;;;;;;;5.45;2.70;;;;;;;11.04;52.55;99424.16;5066063;28;20061;-70
2021/11/05 04:23:26;;;;;;;3.85;3.05;;;;;;;11.08;52.41;99431.69;5065579;28;20059;-71
2021/11/05 04:25:53;;;;;;;3.08;2.22;;;;;;;11.09;52.29;99427.22;5063968;28;20529;-73
2021/11/05 04:28:20;;;;;;;3.25;2.35;;;;;;;11.15;52.33;99441.72;5066398;28;20481;-74
2021/11/05 04:30:47;;;;;;;3.22;2.50;;;;;;;11.16;52.31;99436.28;5065432;28;20048;-72
2021/11/05 04:33:15;;;;;;;8.70;4.43;;;;;;;11.13;52.39;99459.50;5065985;28;20040;-75
2021/11/05 04:35:42;;;;;;;7.10;4.95;;;;;;;11.15;52.29;99447.84;5065821;28;20056;-74
2021/11/05 04:38:09;;;;;;;7.28;2.92;;;;;;;11.16;52.15;99449.50;5065950;28;20052;-70
2021/11/05 04:40:38;;;;;;;4.90;2.78;;;;;;;11.17;52.21;99460.91;5065114;28;20059;-71
2021/11/05 04:43:05;;;;;;;4.47;2.70;;;;;;;11.14;52.37;99466.47;5064170;28;20040;-70
2021/11/05 04:45:32;;;;;;;3.72;2.53;;;;;;;11.14;52.14;99469.94;5065011;28;20373;-71
2021/11/05 04:47:59;;;;;;;6.75;2.55;;;;;;;11.18;52.27;99478.44;5063957;28;20082;-71
2021/11/05 04:50:26;;;;;;;3.35;2.50;;;;;;;11.19;52.27;99490.69;5064505;28;20044;-71
2021/11/05 04:52:53;;;;;;;4.82;2.92;;;;;;;11.16;52.18;99490.94;5064104;28;20064;-70
2021/11/05 04:55:22;;;;;;;4.25;2.88;;;;;;;11.19;52.29;99502.09;5063576;28;20053;-71
2021/11/05 04:57:51;;;;;;;4.97;3.13;;;;;;;11.17;52.17;99503.22;5064719;28;20048;-71
2021/11/05 05:00:20;;;;;;;3.97;2.67;;;;;;;11.17;52.16;99498.75;5063411;28;20131;-70
2021/11/05 05:02:47;;;;;;;4.28;3.17;;;;;;;11.17;52.07;99497.94;5064828;28;20396;-71
2021/11/05 05:05:14;;;;;;;5.78;3.50;;;;;;;11.13;52.02;99507.94;5064405;28;20596;-69
2021/11/05 05:07:42;;;;;;;3.78;2.67;;;;;;;11.14;52.17;99509.59;5065087;28;20484;-74
2021/11/05 05:10:10;;;;;;;6.60;3.50;;;;;;;11.10;52.32;99506.38;5065045;28;20048;-70
2021/11/05 05:12:38;;;;;;;6.03;3.15;;;;;;;11.10;52.07;99519.59;5066465;28;20056;-69
2021/11/05 05:15:09;;;;;;;4.63;3.47;;;;;;;11.09;52.25;99511.78;5063992;28;20044;-70
2021/11/05 05:17:36;;;;;;;5.60;3.22;;;;;;;11.10;52.18;99519.59;5065141;28;20416;-70
2021/11/05 05:20:06;;;;;;;6.22;3.95;;;;;;;11.09;52.11;99517.06;5067520;28;20048;-72
2021/11/05 05:22:33;;;;;;;6.15;3.78;;;;;;;11.07;52.17;99524.28;5069099;28;20044;-72
2021/11/05 05:25:00;;;;;;;3.88;3.50;;;;;;;11.07;52.02;99530.44;5067250;28;20048;-71
2021/11/05 05:27:27;;;;;;;4.43;3.35;;;;;;;11.06;52.08;99541.13;5069113;28;20052;-73
2021/11/05 05:29:54;;;;;;;4.65;3.63;;;;;;;11.08;52.11;99539.19;5069359;28;20052;-71
2021/11/05 05:32:22;;;;;;;7.05;2.90;;;;;;;11.07;52.24;99550.72;5069534;28;20041;-71
2021/11/05 05:34:51;;;;;;;7.57;4.03;;;;;;;11.06;52.38;99554.34;5068168;28;20063;-70
2021/11/05 05:37:18;;;;;;;5.10;3.50;;;;;;;11.06;52.12;99557.00;5067630;28;20048;-73
2021/11/05 05:39:45;;;;;;;6.32;3.70;;;;;;;11.06;52.26;99557.00;5068983;28;20041;-73
2021/11/05 05:42:12;;;;;;;4.95;2.90;;;;;;;11.07;52.26;99566.56;5067946;28;20106;-72
2021/11/05 05:44:41;;;;;;;6.05;3.40;;;;;;;11.07;52.36;99579.78;5069678;28;20048;-73
2021/11/05 05:47:08;;;;;;;5.95;3.47;;;;;;;11.05;52.28;99584.38;5069782;28;20513;-78
2021/11/05 05:49:37;;;;;;;6.60;3.83;;;;;;;11.04;52.21;99585.38;5070989;28;20064;-76
2021/11/05 05:52:04;;;;;;;5.82;4.15;;;;;;;11.05;52.41;99589.66;5070516;28;20567;-77
2021/11/05 05:54:33;;;;;;;8.85;4.20;;;;;;;11.02;52.20;99597.84;5068556;28;20132;-75
2021/11/05 05:57:01;;;;;;;7.78;4.40;;;;;;;11.00;52.23;99605.06;5068984;28;20136;-74
2021/11/05 05:59:28;;;;;;;7.75;3.95;;;;;;;10.99;52.38;99613.97;5054661;28;20049;-75
2021/11/05 06:01:55;;;;;;;7.80;4.97;;;;;;;11.01;52.22;99604.09;5068007;28;20056;-74
2021/11/05 06:04:25;;;;;;;7.45;4.40;;;;;;;11.02;52.06;99613.69;5068902;28;20644;-74
2021/11/05 06:06:54;;;;;;;8.48;4.57;;;;;;;11.00;52.28;99628.84;5065578;28;20119;-75
2021/11/05 06:09:21;;;;;;;8.60;5.15;;;;;;;10.97;52.08;99629.94;5048680;28;20037;-77
2021/11/05 06:11:48;;;;;;;6.50;4.28;;;;;;;10.99;52.25;99625.38;5068460;28;20044;-76
2021/11/05 06:14:15;;;;;;;7.75;4.68;;;;;;;10.97;52.34;99631.78;5068719;28;20066;-72
2021/11/05 06:16:42;;;;;;;6.45;3.90;;;;;;;11.00;52.14;99640.28;5067441;28;20464;-71
2021/11/05 06:19:09;;;;;;;8.18;4.05;;;;;;;11.01;52.04;99638.47;5069025;28;20126;-73
2021/11/05 06:21:36;;;;;;;8.27;4.20;;;;;;;11.00;52.04;99639.41;5069642;28;20055;-72
2021/11/05 06:24:05;;;;;;;7.10;4.70;;;;;;;11.01;52.04;99649.03;5073230;28;20044;-70
2021/11/05 06:26:32;;;;;;;9.23;4.43;;;;;;;11.01;52.08;99646.38;5068851;28;20497;-69
2021/11/05 06:29:02;;;;;;;7.35;3.70;;;;;;;11.02;52.12;99648.03;5069787;28;20044;-72
2021/11/05 06:31:30;;;;;;;6.88;4.40;;;;;;;11.01;52.26;99667.53;5067130;28;20130;-71
2021/11/05 06:33:57;;;;;;;8.52;4.38;;;;;;;11.02;52.12;99672.69;5067156;28;20040;-78
2021/11/05 06:36:25;;;;;;;9.02;4.47;;;;;;;10.99;52.16;99672.09;5070504;28;20071;-78
2021/11/05 06:38:52;;;;;;;7.95;4.20;;;;;;;10.99;52.33;99680.03;5070237;28;20048;-77
2021/11/05 06:41:21;;;;;;;5.88;4.07;;;;;;;11.01;52.34;99671.00;5070691;28;20062;-79
2021/11/05 06:43:48;;;;;;;7.15;4.07;;;;;;;11.05;52.08;99676.88;5072958;28;20044;-78
2021/11/05 06:46:16;;;;;;;6.07;4.22;;;;;;;11.04;52.39;99677.84;5068645;28;20083;-79
2021/11/05 06:48:44;;;;;;;8.13;4.63;;;;;;;11.04;52.14;99678.69;5070360;28;20135;-80
2021/11/05 06:51:11;;;;;;;9.30;4.15;;;;;;;11.09;52.01;99688.84;5069788;28;20049;-78
2021/11/05 06:53:43;;;;;;;8.18;5.15;;;;;;;11.06;51.92;99686.47;5068899;28;20055;-78
2021/11/05 06:56:10;;;;;;;7.72;4.90;;;;;;;11.08;52.08;99689.84;5068021;28;20079;-79
2021/11/05 06:58:40;;;;;;;7.85;4.97;;;;;;;11.07;52.13;99694.28;5080547;28;20194;-80
2021/11/05 07:01:10;;;;;;;8.93;4.68;;;;;;;11.07;51.94;99693.44;5049952;28;20076;-79
2021/11/05 07:03:38;;;;;;;5.55;3.88;;;;;;;11.08;51.82;99703.03;5066499;28;20057;-78
2021/11/05 07:06:07;;;;;;;5.97;4.47;;;;;;;11.10;51.77;99709.03;5067992;28;20054;-77
2021/11/05 07:08:34;;;;;;;7.55;5.40;;;;;;;11.12;51.76;99693.88;5069510;28;20546;-77
2021/11/05 07:11:01;;;;;;;6.47;4.13;;;;;;;11.12;51.53;99707.09;5071916;28;20067;-76
2021/11/05 07:13:29;;;;;;;7.85;3.95;;;;;;;11.15;51.56;99714.78;5073936;28;20155;-79
2021/11/05 07:16:02;;;;;;;6.43;4.32;;;;;;;11.22;51.48;99723.88;5069714;28;20139;-79
2021/11/05 07:18:32;;;;;;;6.75;4.28;;;;;;;11.28;51.26;99727.81;5070413;28;20144;-77
2021/11/05 07:21:05;;;;;;;6.32;4.50;;;;;;;11.31;51.14;99719.63;5073896;28;20052;-75
2021/11/05 07:23:33;;;;;;;8.30;4.10;;;;;;;11.33;51.12;99730.91;5040759;28;20044;-78
2021/11/05 07:26:03;;;;;;;6.35;3.65;;;;;;;11.40;50.91;99720.66;5068826;28;20164;-80
2021/11/05 07:28:31;;;;;;;7.28;4.47;;;;;;;11.43;50.70;99741.53;5083946;28;20040;-80
2021/11/05 07:30:59;;;;;;;9.48;4.13;;;;;;;11.44;50.74;99733.47;5089244;28;20037;-78
2021/11/05 07:33:27;;;;;;;6.65;5.03;;;;;;;11.52;50.64;99734.63;5083277;28;20047;-79
2021/11/05 07:35:55;;;;;;;4.75;3.53;;;;;;;11.59;50.50;99733.97;5087240;28;20059;-79
2021/11/05 07:38:22;;;;;;;5.20;3.60;;;;;;;11.65;50.50;99735.28;5085662;28;20037;-78
2021/11/05 07:40:52;;;;;;;5.53;3.88;;;;;;;11.73;50.23;99737.28;5075109;28;20677;-79
2021/11/05 07:43:19;;;;;;;11.45;6.70;;;;;;;11.73;50.13;99747.84;5071653;28;20071;-81
2021/11/05 07:45:46;;;;;;;14.48;6.65;;;;;;;11.71;50.15;99750.63;5072070;28;20057;-77
2021/11/05 07:48:15;;;;;;;7.90;5.28;;;;;;;11.70;50.15;99746.28;5071219;28;20503;-77
2021/11/05 07:50:42;;;;;;;10.93;7.93;;;;;;;11.74;50.17;99754.81;5071769;28;20058;-78
2021/11/05 07:53:09;;;;;;;6.32;4.78;;;;;;;11.78;50.15;99749.13;5085866;28;20036;-78
2021/11/05 07:55:36;;;;;;;7.07;4.97;;;;;;;11.90;49.98;99746.41;5076345;28;20495;-79
2021/11/05 07:58:04;;;;;;;7.40;3.80;;;;;;;11.92;49.58;99761.22;5076453;28;20042;-79
2021/11/05 08:00:35;;;;;;;8.27;4.28;;;;;;;12.03;49.45;99766.41;5074574;28;20549;-79
2021/11/05 08:03:02;;;;;;;7.90;5.68;;;;;;;12.08;49.25;99766.00;5078997;28;20482;-76
2021/11/05 08:05:37;;;;;;;6.05;4.43;;;;;;;12.12;49.37;99771.88;5085380;28;20103;-80
2021/11/05 08:08:06;;;;;;;7.40;3.60;;;;;;;12.17;49.08;99761.72;5082441;28;20041;-75
2021/11/05 08:10:33;;;;;;;6.35;3.92;;;;;;;12.17;49.07;99767.00;5074900;28;20058;-78
2021/11/05 08:13:03;;;;;;;7.00;3.92;;;;;;;12.22;49.11;99770.09;5086412;28;20047;-80
2021/11/05 08:15:30;;;;;;;7.80;4.57;;;;;;;12.29;48.92;99770.41;5067925;28;20048;-77
2021/11/05 08:17:59;;;;;;;5.32;3.58;;;;;;;12.18;49.08;99774.00;5085013;28;20280;-78
2021/11/05 08:20:28;;;;;;;5.80;3.92;;;;;;;12.12;49.15;99774.50;5074658;28;20040;-77
2021/11/05 08:22:58;;;;;;;7.18;4.55;;;;;;;12.22;49.30;99772.75;5076770;28;20052;-76
2021/11/05 08:25:32;;;;;;;6.25;4.22;;;;;;;12.40;48.74;99772.94;5075032;28;20473;-79
2021/11/05 08:28:15;;;;;;;8.05;4.72;;;;;;;12.50;48.61;99773.81;5077382;28;20052;-78
2021/11/05 08:30:42;;;;;;;6.05;3.95;;;;;;;12.54;48.62;99771.75;5073182;28;20052;-79
2021/11/05 08:33:10;;;;;;;5.68;3.45;;;;;;;12.59;48.25;99782.78;5067653;28;20048;-78
2021/11/05 08:35:38;;;;;;;8.65;4.28;;;;;;;12.64;48.27;99796.47;5074792;28;20044;-78
2021/11/05 08:38:14;;;;;;;8.48;5.18;;;;;;;12.67;48.12;99795.34;5073034;28;20563;-77
2021/11/05 08:40:44;;;;;;;6.47;4.45;;;;;;;12.69;48.17;99818.06;5056469;28;20074;-76
2021/11/05 08:43:14;;;;;;;7.60;4.13;;;;;;;12.71;48.05;99813.50;5071720;28;20134;-79
2021/11/05 08:45:42;;;;;;;8.55;4.43;;;;;;;12.75;47.99;99841.38;5077381;28;20048;-79
2021/11/05 08:48:17;;;;;;;6.80;4.07;;;;;;;12.71;48.11;99840.00;5050319;28;20110;-76
2021/11/05 08:50:44;;;;;;;6.57;4.18;;;;;;;12.59;48.43;99838.41;5082985;28;20408;-79
2021/11/05 08:53:12;;;;;;;7.43;3.97;;;;;;;12.68;48.47;99842.06;5051158;28;20516;-79
2021/11/05 08:55:43;;;;;;;10.20;4.68;;;;;;;12.70;48.35;99856.03;5053442;28;20044;-79
2021/11/05 08:58:11;;;;;;;6.82;4.00;;;;;;;12.72;48.33;99848.78;5052834;28;20048;-79
2021/11/05 09:00:38;;;;;;;8.73;4.68;;;;;;;12.72;48.11;99865.50;5071947;28;20053;-81
2021/11/05 09:03:06;;;;;;;6.60;4.13;;;;;;;12.68;48.48;99860.63;5074471;28;20067;-77
2021/11/05 09:05:35;;;;;;;7.68;4.63;;;;;;;12.75;48.24;99865.25;5073626;28;20068;-80
2021/11/05 09:08:03;;;;;;;7.55;4.18;;;;;;;12.78;48.09;99859.69;5080731;28;20113;-77
2021/11/05 09:10:33;;;;;;;7.45;4.40;;;;;;;12.94;47.96;99864.44;5071628;28;20040;-77
2021/11/05 09:13:02;;;;;;;9.95;5.25;;;;;;;13.00;47.91;99868.38;5073333;28;20047;-81
2021/11/05 09:15:30;;;;;;;11.63;5.40;;;;;;;13.00;47.69;99861.25;5073222;28;20049;-77
2021/11/05 09:18:00;;;;;;;7.65;4.70;;;;;;;13.03;47.90;99860.13;5080665;28;20067;-79
2021/11/05 09:20:30;;;;;;;6.93;4.22;;;;;;;12.90;48.03;99859.56;5079507;28;20080;-77
2021/11/05 09:22:57;;;;;;;7.25;4.47;;;;;;;12.76;48.22;99869.53;5064415;28;20059;-79
2021/11/05 09:25:25;;;;;;;7.07;4.50;;;;;;;12.71;48.49;99876.22;5082176;28;20044;-79
2021/11/05 09:28:05;;;;;;;9.13;4.70;;;;;;;12.63;48.46;99890.16;5086668;28;20041;-77
2021/11/05 09:30:35;;;;;;;10.50;4.25;;;;;;;12.66;48.65;99894.34;5078973;28;20557;-80
2021/11/05 09:33:03;;;;;;;6.53;4.40;;;;;;;12.66;48.32;99892.53;5080632;28;20249;-79
2021/11/05 09:35:30;;;;;;;7.38;4.13;;;;;;;12.63;48.62;99906.06;5079239;28;20048;-79
2021/11/05 09:37:58;;;;;;;10.93;6.45;;;;;;;12.49;48.83;99904.59;5081293;28;20057;-78
2021/11/05 09:40:27;;;;;;;9.05;5.28;;;;;;;12.35;48.91;99915.53;5076115;28;20080;-81
2021/11/05 09:42:57;;;;;;;10.00;6.07;;;;;;;12.29;49.33;99908.94;5096044;28;20092;-81
2021/11/05 09:45:31;;;;;;;9.88;5.20;;;;;;;12.21;49.49;99904.31;5096352;28;20040;-79
2021/11/05 09:47:59;;;;;;;9.57;5.85;;;;;;;12.12;49.70;99917.47;5079869;28;20269;-77
2021/11/05 09:50:26;;;;;;;8.40;6.80;;;;;;;12.13;49.67;99925.28;5096287;28;20070;-78
2021/11/05 09:52:53;;;;;;;11.27;5.60;;;;;;;12.12;49.98;99931.56;5093979;28;20092;-80
2021/11/05 09:55:21;;;;;;;8.00;5.30;;;;;;;12.14;49.87;99932.28;5091933;28;20041;-80
2021/11/05 09:57:51;;;;;;;9.98;6.00;;;;;;;12.12;49.82;99939.50;5092417;28;20036;-78
2021/11/05 10:00:25;;;;;;;9.52;6.03;;;;;;;12.07;50.17;99939.06;5092591;28;20061;-79
2021/11/05 10:02:56;;;;;;;11.02;6.18;;;;;;;12.02;50.22;99942.06;5092704;28;20100;-80
2021/11/05 10:05:23;;;;;;;11.68;6.75;;;;;;;11.95;50.42;99953.31;5068171;28;20541;-81
2021/11/05 10:07:53;;;;;;;7.78;5.13;;;;;;;11.90;50.46;99958.97;5084188;28;20104;-79
2021/11/05 10:10:25;;;;;;;7.53;4.72;;;;;;;11.91;50.63;99959.81;5086827;28;20052;-79
2021/11/05 10:12:55;;;;;;;8.55;5.55;;;;;;;11.94;50.74;99967.50;5085077;28;20073;-81
2021/11/05 10:15:29;;;;;;;10.73;6.25;;;;;;;12.07;50.80;99972.63;5086573;28;20056;-79
2021/11/05 10:18:16;;;;;;;8.60;5.00;;;;;;;12.40;50.22;99968.94;5083024;28;20046;-79
2021/11/05 10:20:45;;;;;;;7.93;4.80;;;;;;;12.59;49.71;99966.41;5065574;28;20051;-78
2021/11/05 10:23:17;;;;;;;8.48;4.57;;;;;;;12.75;49.50;99965.94;5084526;28;20087;-78
2021/11/05 10:25:48;;;;;;;12.45;5.18;;;;;;;12.86;49.43;99962.34;5082211;28;20056;-79
2021/11/05 10:28:25;;;;;;;7.50;4.22;;;;;;;12.92;49.57;99963.63;5073725;28;20052;-77
2021/11/05 10:30:58;;;;;;;8.35;4.38;;;;;;;12.91;49.44;99972.53;5071431;28;20670;-79
2021/11/05 10:33:30;;;;;;;9.20;5.47;;;;;;;12.68;49.86;99978.03;5069504;28;20064;-81
2021/11/05 10:36:05;;;;;;;9.30;5.38;;;;;;;12.52;50.31;99989.09;5070893;28;20048;-81
2021/11/05 10:38:35;;;;;;;11.75;7.65;;;;;;;12.33;50.91;100002.22;5057802;28;20056;-79
2021/11/05 10:41:04;;;;;;;8.80;5.38;;;;;;;12.25;51.27;100008.16;5076055;28;20424;-77
2021/11/05 10:44:02;;;;;;;5.00;3.45;;;;;;;12.17;51.70;100010.59;5057987;28;20047;-80
2021/11/05 10:46:35;;;;;;;6.20;3.50;;;;;;;12.06;52.15;100006.19;5013199;28;20072;-79
2021/11/05 10:49:08;;;;;;;6.30;4.30;;;;;;;11.80;53.65;100008.31;4995236;28;20049;-83
2021/11/05 10:51:41;;;;;;;5.68;3.78;;;;;;;11.76;53.79;100012.19;5010687;28;20056;-81
2021/11/05 10:54:08;;;;;;;7.43;4.15;;;;;;;11.91;53.59;100012.75;4996230;28;20053;-82
2021/11/05 10:56:35;;;;;;;9.43;3.10;;;;;;;12.18;52.72;100013.13;5010579;28;20719;-82
2021/11/05 10:59:06;;;;;;;5.22;2.78;;;;;;;12.47;52.35;99995.75;5012704;28;20045;-82
2021/11/05 11:01:37;;;;;;;3.70;3.28;;;;;;;12.62;51.75;99997.09;5013087;28;20115;-82
2021/11/05 11:04:08;;;;;;;5.40;3.15;;;;;;;12.65;51.58;100003.97;5031537;28;20044;-82
2021/11/05 11:06:39;;;;;;;4.75;3.17;;;;;;;12.69;51.47;100000.91;5079634;28;20055;-82
2021/11/05 11:09:13;;;;;;;2.80;2.15;;;;;;;12.84;51.13;100004.06;5075612;28;20048;-81
2021/11/05 11:11:43;;;;;;;3.13;2.33;;;;;;;13.02;50.66;100006.94;5069974;28;20628;-81
2021/11/05 11:14:16;;;;;;;3.95;2.90;;;;;;;12.90;50.16;100003.53;5071672;28;20626;-79
2021/11/05 11:16:48;;;;;;;2.78;2.33;;;;;;;12.70;50.38;100002.59;5076606;28;20055;-81
2021/11/05 11:19:21;;;;;;;3.97;2.67;;;;;;;12.69;50.55;100014.16;5072284;28;20040;-80
2021/11/05 11:21:58;;;;;;;1.88;1.73;;;;;;;12.72;50.65;100018.38;5059055;28;20112;-81
2021/11/05 11:24:27;;;;;;;2.38;2.08;;;;;;;12.75;50.58;100015.47;5071754;28;20052;-82
2021/11/05 11:27:00;;;;;;;2.72;2.40;;;;;;;12.74;50.66;100019.06;5070140;28;20062;-81
2021/11/05 11:29:30;;;;;;;4.57;3.30;;;;;;;12.87;50.48;100024.16;5077399;28;20037;-82
2021/11/05 11:32:04;;;;;;;3.63;3.17;;;;;;;13.08;50.04;100016.16;5027072;28;20607;-82
2021/11/05 11:34:33;;;;;;;3.42;2.30;;;;;;;13.19;49.97;100008.94;5031943;28;20076;-83
2021/11/05 11:37:05;;;;;;;2.75;2.17;;;;;;;13.17;49.73;100023.31;5028934;28;20053;-83